createdAt,value
2017-09-13T00:00:11.111Z,12.71
2017-09-13T00:01:11.178Z,12.74
2017-09-13T00:02:11.120Z,12.75
2017-09-13T00:03:11.115Z,12.78
2017-09-13T00:04:11.121Z,12.80
2017-09-13T00:05:11.130Z,12.81
2017-09-13T00:06:11.130Z,12.82
2017-09-13T00:07:11.133Z,12.82
2017-09-13T00:08:11.453Z,12.79
2017-09-13T00:09:11.147Z,12.77
2017-09-13T00:10:11.143Z,12.75
2017-09-13T00:11:11.144Z,12.74
2017-09-13T00:12:11.151Z,12.73
2017-09-13T00:13:11.154Z,12.73
2017-09-13T00:14:11.152Z,12.69
2017-09-13T00:15:11.159Z,12.69
2017-09-13T00:16:11.157Z,12.67
2017-09-13T00:17:11.163Z,12.63
2017-09-13T00:18:11.167Z,12.60
2017-09-13T00:19:11.175Z,12.55
2017-09-13T00:20:11.173Z,12.52
2017-09-13T00:21:11.180Z,12.50
2017-09-13T00:22:11.195Z,12.47
2017-09-13T00:23:11.187Z,12.43
2017-09-13T00:24:11.186Z,12.39
2017-09-13T00:25:11.282Z,12.35
2017-09-13T00:26:11.193Z,12.32
2017-09-13T00:27:11.208Z,12.31
2017-09-13T00:28:11.202Z,12.30
2017-09-13T00:29:11.220Z,12.28
2017-09-13T00:30:11.215Z,12.26
2017-09-13T00:31:11.209Z,12.23
2017-09-13T00:32:11.214Z,12.21
2017-09-13T00:33:11.227Z,12.20
2017-09-13T00:34:11.219Z,12.17
2017-09-13T00:35:11.223Z,12.16
2017-09-13T00:36:11.227Z,12.15
2017-09-13T00:37:11.236Z,12.11
2017-09-13T00:38:11.241Z,12.13
2017-09-13T00:39:11.235Z,12.14
2017-09-13T00:40:11.236Z,12.13
2017-09-13T00:41:11.241Z,12.10
2017-09-13T00:42:11.252Z,12.09
2017-09-13T00:43:11.249Z,12.06
2017-09-13T00:44:11.254Z,12.01
2017-09-13T00:45:11.259Z,11.94
2017-09-13T00:46:11.257Z,11.89
2017-09-13T00:47:11.263Z,11.85
2017-09-13T00:48:11.272Z,11.82
2017-09-13T00:49:11.275Z,11.80
2017-09-13T00:50:11.272Z,11.80
2017-09-13T00:51:11.280Z,11.78
2017-09-13T00:52:11.284Z,11.78
2017-09-13T00:53:11.295Z,11.79
2017-09-13T00:54:11.284Z,11.77
2017-09-13T00:55:11.288Z,11.74
2017-09-13T00:56:11.289Z,11.70
2017-09-13T00:57:11.295Z,11.68
2017-09-13T00:58:11.299Z,11.66
2017-09-13T00:59:11.300Z,11.64
2017-09-13T01:02:33.075Z,11.63
2017-09-13T01:02:35.208Z,11.62
2017-09-13T01:02:36.325Z,11.58
2017-09-13T01:03:11.317Z,11.59
2017-09-13T01:05:56.870Z,11.57
2017-09-13T01:05:58.642Z,11.58
2017-09-13T01:11:17.952Z,11.56
2017-09-13T01:11:19.435Z,11.58
2017-09-13T01:11:20.653Z,11.60
2017-09-13T01:11:21.972Z,11.64
2017-09-13T01:11:23.092Z,11.67
2017-09-13T01:11:24.208Z,11.70
2017-09-13T01:15:08.883Z,11.72
2017-09-13T01:15:11.042Z,11.73
2017-09-13T01:15:12.370Z,11.76
2017-09-13T01:15:13.563Z,11.77
2017-09-13T01:17:52.895Z,11.78
2017-09-13T01:17:55.208Z,11.78
2017-09-13T01:20:33.052Z,11.79
2017-09-13T01:20:35.225Z,11.78
2017-09-13T01:20:36.437Z,11.77
2017-09-13T01:23:43.853Z,11.74
2017-09-13T01:23:45.414Z,11.69
2017-09-13T01:23:46.641Z,11.64
2017-09-13T01:26:32.865Z,11.60
2017-09-13T01:26:34.450Z,11.54
2017-09-13T01:26:35.573Z,11.49
2017-09-13T01:29:48.861Z,11.43
2017-09-13T01:29:51.057Z,11.40
2017-09-13T01:29:52.177Z,11.35
2017-09-13T01:32:32.833Z,11.31
2017-09-13T01:32:34.952Z,11.30
2017-09-13T01:32:36.075Z,11.31
2017-09-13T01:35:52.838Z,11.32
2017-09-13T01:35:54.348Z,11.32
2017-09-13T01:35:55.569Z,11.33
2017-09-13T01:38:32.813Z,11.36
2017-09-13T01:38:34.540Z,11.40
2017-09-13T01:38:35.454Z,11.43
2017-09-13T01:41:52.788Z,11.44
2017-09-13T01:41:54.335Z,11.47
2017-09-13T01:41:55.453Z,11.50
2017-09-13T01:45:08.802Z,11.54
2017-09-13T01:45:11.237Z,11.57
2017-09-13T01:45:12.148Z,11.59
2017-09-13T01:45:13.476Z,11.62
2017-09-13T01:47:52.891Z,11.65
2017-09-13T01:47:55.226Z,11.67
2017-09-13T01:50:32.807Z,11.69
2017-09-13T01:50:34.390Z,11.70
2017-09-13T01:50:35.516Z,11.72
2017-09-13T01:51:11.471Z,11.69
2017-09-13T01:53:42.888Z,11.68
2017-09-13T01:53:44.595Z,11.66
2017-09-13T01:57:04.012Z,11.66
2017-09-13T01:57:05.560Z,11.66
2017-09-13T01:57:07.398Z,11.68
2017-09-13T01:59:52.844Z,11.66
2017-09-13T01:59:54.376Z,11.66
2017-09-13T01:59:55.495Z,11.63
2017-09-13T02:00:11.502Z,11.62
2017-09-13T02:01:11.506Z,11.57
2017-09-13T02:02:11.511Z,11.54
2017-09-13T02:03:11.513Z,11.50
2017-09-13T02:04:11.512Z,11.45
2017-09-13T02:05:11.518Z,11.44
2017-09-13T02:06:11.521Z,11.42
2017-09-13T02:07:11.523Z,11.42
2017-09-13T02:08:11.533Z,11.44
2017-09-13T02:09:11.535Z,11.46
2017-09-13T02:10:11.534Z,11.47
2017-09-13T02:11:11.540Z,11.50
2017-09-13T02:12:11.540Z,11.54
2017-09-13T02:13:11.562Z,11.58
2017-09-13T02:14:11.545Z,11.59
2017-09-13T02:15:11.577Z,11.61
2017-09-13T02:16:11.558Z,11.64
2017-09-13T02:17:11.567Z,11.64
2017-09-13T02:18:11.561Z,11.65
2017-09-13T02:19:11.565Z,11.64
2017-09-13T02:20:11.567Z,11.64
2017-09-13T02:21:11.582Z,11.63
2017-09-13T02:22:11.580Z,11.62
2017-09-13T02:23:11.592Z,11.63
2017-09-13T02:24:11.578Z,11.62
2017-09-13T02:25:11.585Z,11.62
2017-09-13T02:26:11.588Z,11.61
2017-09-13T02:27:11.591Z,11.61
2017-09-13T02:28:11.593Z,11.59
2017-09-13T02:29:11.597Z,11.59
2017-09-13T02:30:11.603Z,11.57
2017-09-13T02:31:11.608Z,11.56
2017-09-13T02:32:11.606Z,11.56
2017-09-13T02:33:11.612Z,11.56
2017-09-13T02:34:11.613Z,11.57
2017-09-13T02:35:11.615Z,11.57
2017-09-13T02:36:11.619Z,11.57
2017-09-13T02:37:11.626Z,11.58
2017-09-13T02:38:11.633Z,11.54
2017-09-13T02:39:11.633Z,11.53
2017-09-13T02:40:11.634Z,11.55
2017-09-13T02:41:11.637Z,11.55
2017-09-13T02:42:11.640Z,11.55
2017-09-13T02:43:11.645Z,11.57
2017-09-13T02:44:11.648Z,11.59
2017-09-13T02:45:11.656Z,11.61
2017-09-13T02:46:11.665Z,11.62
2017-09-13T02:47:11.672Z,11.62
2017-09-13T02:48:11.658Z,11.61
2017-09-13T02:49:11.665Z,11.61
2017-09-13T02:50:11.671Z,11.62
2017-09-13T02:51:11.669Z,11.63
2017-09-13T02:52:11.676Z,11.67
2017-09-13T02:53:11.684Z,11.73
2017-09-13T02:54:11.676Z,11.79
2017-09-13T02:55:11.682Z,11.84
2017-09-13T02:56:11.688Z,11.89
2017-09-13T02:57:11.690Z,11.94
2017-09-13T02:58:11.692Z,12.02
2017-09-13T02:59:11.695Z,12.04
2017-09-13T03:00:11.709Z,12.08
2017-09-13T03:01:11.704Z,12.10
2017-09-13T03:02:11.702Z,12.11
2017-09-13T03:03:11.706Z,12.13
2017-09-13T03:04:11.713Z,12.13
2017-09-13T03:05:11.716Z,12.12
2017-09-13T03:06:11.717Z,12.12
2017-09-13T03:07:11.725Z,12.13
2017-09-13T03:08:11.723Z,12.15
2017-09-13T03:09:11.727Z,12.18
2017-09-13T03:10:11.732Z,12.21
2017-09-13T03:11:11.735Z,12.23
2017-09-13T03:12:11.738Z,12.26
2017-09-13T03:13:11.740Z,12.29
2017-09-13T03:14:11.744Z,12.32
2017-09-13T03:15:11.756Z,12.36
2017-09-13T03:16:11.760Z,12.41
2017-09-13T03:17:11.755Z,12.44
2017-09-13T03:18:11.770Z,12.47
2017-09-13T03:19:11.808Z,12.49
2017-09-13T03:20:11.767Z,12.51
2017-09-13T03:21:11.768Z,12.52
2017-09-13T03:22:11.773Z,12.52
2017-09-13T03:23:11.777Z,12.52
2017-09-13T03:24:11.813Z,12.52
2017-09-13T03:24:54.475Z,12.52
2017-09-13T03:26:56.811Z,12.52
2017-09-13T03:26:59.312Z,12.49
2017-09-13T03:27:11.787Z,12.50
2017-09-13T03:28:11.790Z,12.46
2017-09-13T03:29:11.796Z,12.46
2017-09-13T03:30:11.798Z,12.42
2017-09-13T03:31:11.799Z,12.39
2017-09-13T03:32:11.804Z,12.35
2017-09-13T03:33:11.809Z,12.32
2017-09-13T03:34:11.810Z,12.29
2017-09-13T03:35:11.810Z,12.26
2017-09-13T03:36:11.818Z,12.21
2017-09-13T03:37:11.822Z,12.18
2017-09-13T03:38:11.826Z,12.16
2017-09-13T03:39:11.831Z,12.14
2017-09-13T03:40:11.828Z,12.13
2017-09-13T03:41:11.832Z,12.13
2017-09-13T03:42:11.897Z,12.14
2017-09-13T03:43:11.838Z,12.13
2017-09-13T03:44:11.847Z,12.12
2017-09-13T03:45:11.852Z,12.11
2017-09-13T03:46:11.871Z,12.09
2017-09-13T03:47:11.863Z,12.09
2017-09-13T03:48:11.856Z,12.10
2017-09-13T03:49:11.859Z,12.13
2017-09-13T03:50:11.863Z,12.16
2017-09-13T03:51:11.865Z,12.18
2017-09-13T03:52:11.867Z,12.18
2017-09-13T03:53:11.873Z,12.20
2017-09-13T03:54:11.883Z,12.20
2017-09-13T03:55:11.889Z,12.21
2017-09-13T03:56:11.881Z,12.21
2017-09-13T03:57:11.885Z,12.21
2017-09-13T03:58:11.890Z,12.21
2017-09-13T03:59:11.896Z,12.22
2017-09-13T04:00:11.904Z,12.23
2017-09-13T04:01:11.898Z,12.23
2017-09-13T04:02:11.900Z,12.22
2017-09-13T04:03:11.913Z,12.22
2017-09-13T04:04:11.909Z,12.21
2017-09-13T04:05:11.913Z,12.22
2017-09-13T04:06:11.916Z,12.22
2017-09-13T04:07:11.918Z,12.23
2017-09-13T04:08:11.923Z,12.22
2017-09-13T04:09:11.931Z,12.23
2017-09-13T04:10:11.927Z,12.22
2017-09-13T04:11:11.932Z,12.21
2017-09-13T04:12:11.936Z,12.21
2017-09-13T04:13:11.942Z,12.20
2017-09-13T04:14:12.341Z,12.20
2017-09-13T04:15:11.947Z,12.20
2017-09-13T04:16:11.961Z,12.21
2017-09-13T04:17:11.950Z,12.21
2017-09-13T04:18:11.959Z,12.21
2017-09-13T04:19:11.958Z,12.20
2017-09-13T04:20:11.962Z,12.21
2017-09-13T04:21:11.965Z,12.19
2017-09-13T04:22:11.968Z,12.18
2017-09-13T04:23:11.975Z,12.19
2017-09-13T04:24:11.976Z,12.20
2017-09-13T04:25:11.992Z,12.22
2017-09-13T04:26:11.979Z,12.23
2017-09-13T04:27:11.987Z,12.26
2017-09-13T04:28:11.992Z,12.30
2017-09-13T04:29:11.992Z,12.34
2017-09-13T04:30:12.000Z,12.40
2017-09-13T04:31:11.999Z,12.45
2017-09-13T04:32:12.001Z,12.51
2017-09-13T04:33:12.008Z,12.54
2017-09-13T04:34:12.010Z,12.58
2017-09-13T04:35:12.012Z,12.59
2017-09-13T04:36:12.014Z,12.61
2017-09-13T04:37:12.017Z,12.63
2017-09-13T04:38:12.020Z,12.65
2017-09-13T04:39:12.025Z,12.67
2017-09-13T04:40:12.028Z,12.68
2017-09-13T04:41:12.031Z,12.71
2017-09-13T04:42:12.032Z,12.72
2017-09-13T04:43:12.039Z,12.74
2017-09-13T04:44:12.043Z,12.76
2017-09-13T04:45:12.067Z,12.79
2017-09-13T04:46:12.047Z,12.79
2017-09-13T04:47:12.053Z,12.82
2017-09-13T04:48:12.060Z,12.82
2017-09-13T04:49:12.057Z,12.82
2017-09-13T04:50:12.061Z,12.84
2017-09-13T04:51:12.074Z,12.86
2017-09-13T04:52:12.068Z,12.87
2017-09-13T04:53:12.071Z,12.90
2017-09-13T04:54:12.077Z,12.92
2017-09-13T04:55:12.090Z,12.94
2017-09-13T04:56:12.103Z,12.97
2017-09-13T04:57:12.080Z,12.98
2017-09-13T04:58:12.094Z,13.00
2017-09-13T04:59:12.089Z,12.99
2017-09-13T05:00:12.095Z,13.00
2017-09-13T05:01:12.105Z,13.00
2017-09-13T05:02:12.101Z,13.00
2017-09-13T05:03:12.099Z,12.98
2017-09-13T05:04:12.103Z,12.99
2017-09-13T05:05:12.109Z,12.98
2017-09-13T05:06:12.113Z,12.99
2017-09-13T05:07:12.115Z,12.99
2017-09-13T05:08:12.121Z,12.99
2017-09-13T05:09:12.124Z,13.00
2017-09-13T05:10:12.126Z,13.01
2017-09-13T05:11:12.129Z,13.02
2017-09-13T05:12:12.132Z,13.01
2017-09-13T05:13:12.139Z,13.02
2017-09-13T05:14:12.146Z,13.03
2017-09-13T05:15:12.145Z,13.04
2017-09-13T05:16:12.145Z,13.03
2017-09-13T05:17:12.153Z,13.05
2017-09-13T05:18:12.175Z,13.05
2017-09-13T05:19:12.159Z,13.05
2017-09-13T05:20:12.161Z,13.05
2017-09-13T05:21:12.164Z,13.06
2017-09-13T05:22:12.165Z,13.06
2017-09-13T05:23:12.167Z,13.06
2017-09-13T05:24:12.172Z,13.06
2017-09-13T05:25:12.181Z,13.07
2017-09-13T05:26:12.196Z,13.07
2017-09-13T05:27:12.180Z,13.08
2017-09-13T05:28:12.185Z,13.11
2017-09-13T05:29:12.189Z,13.12
2017-09-13T05:30:12.190Z,13.17
2017-09-13T05:31:12.196Z,13.19
2017-09-13T05:32:12.200Z,13.20
2017-09-13T05:33:12.205Z,13.21
2017-09-13T05:34:12.206Z,13.22
2017-09-13T05:35:12.212Z,13.23
2017-09-13T05:36:12.212Z,13.23
2017-09-13T05:37:12.216Z,13.22
2017-09-13T05:38:12.218Z,13.23
2017-09-13T05:39:12.225Z,13.24
2017-09-13T05:40:12.233Z,13.24
2017-09-13T05:41:12.230Z,13.24
2017-09-13T05:42:12.235Z,13.25
2017-09-13T05:43:12.234Z,13.24
2017-09-13T05:44:12.239Z,13.26
2017-09-13T05:45:12.251Z,13.25
2017-09-13T05:46:12.246Z,13.24
2017-09-13T05:47:12.250Z,13.24
2017-09-13T05:48:12.250Z,13.21
2017-09-13T05:49:12.256Z,13.17
2017-09-13T05:50:12.257Z,13.13
2017-09-13T05:51:12.259Z,13.07
2017-09-13T05:52:12.263Z,13.02
2017-09-13T05:53:12.272Z,12.98
2017-09-13T05:54:12.269Z,12.92
2017-09-13T05:55:12.277Z,12.89
2017-09-13T05:56:12.280Z,12.87
2017-09-13T05:57:12.279Z,12.83
2017-09-13T05:58:12.286Z,12.79
2017-09-13T05:59:12.289Z,12.78
2017-09-13T06:00:12.316Z,12.76
2017-09-13T06:01:12.294Z,12.74
2017-09-13T06:02:12.297Z,12.74
2017-09-13T06:03:12.301Z,12.74
2017-09-13T06:04:12.302Z,12.74
2017-09-13T06:05:12.306Z,12.74
2017-09-13T06:06:12.312Z,12.77
2017-09-13T06:07:12.312Z,12.79
2017-09-13T06:08:12.318Z,12.82
2017-09-13T06:09:12.324Z,12.85
2017-09-13T06:10:12.322Z,12.90
2017-09-13T06:11:12.326Z,12.94
2017-09-13T06:12:12.336Z,12.95
2017-09-13T06:13:12.337Z,12.96
2017-09-13T06:14:12.337Z,12.98
2017-09-13T06:15:12.343Z,13.01
2017-09-13T06:16:12.343Z,13.03
2017-09-13T06:17:12.346Z,13.02
2017-09-13T06:18:12.347Z,13.01
2017-09-13T06:19:12.352Z,13.01
2017-09-13T06:20:12.355Z,13.02
2017-09-13T06:21:12.487Z,13.02
2017-09-13T06:22:12.363Z,13.00
2017-09-13T06:23:12.369Z,13.00
2017-09-13T06:24:12.370Z,12.99
2017-09-13T07:20:48.293Z,13.73
2017-09-13T07:21:12.760Z,13.73
2017-09-13T07:22:12.242Z,13.73
2017-09-13T07:23:12.587Z,13.75
2017-09-13T07:24:12.587Z,13.76
2017-09-13T07:25:12.590Z,13.80
2017-09-13T07:26:12.595Z,13.82
2017-09-13T07:27:12.603Z,13.84
2017-09-13T07:28:12.608Z,13.86
2017-09-13T07:29:12.611Z,13.86
2017-09-13T07:30:12.607Z,13.90
2017-09-13T07:31:12.613Z,13.94
2017-09-13T07:32:12.638Z,14.00
2017-09-13T07:33:12.615Z,14.05
2017-09-13T07:34:12.624Z,14.05
2017-09-13T07:35:12.629Z,14.03
2017-09-13T07:36:12.625Z,14.00
2017-09-13T07:37:12.629Z,13.98
2017-09-13T07:38:12.639Z,13.96
2017-09-13T07:39:12.642Z,13.97
2017-09-13T07:40:12.640Z,13.97
2017-09-13T07:41:12.648Z,14.00
2017-09-13T07:42:12.653Z,14.02
2017-09-13T07:43:12.649Z,14.02
2017-09-13T07:44:12.653Z,14.05
2017-09-13T07:45:12.661Z,14.06
2017-09-13T07:46:12.874Z,14.10
2017-09-13T07:47:12.677Z,14.11
2017-09-13T07:48:12.673Z,14.15
2017-09-13T07:49:12.669Z,14.16
2017-09-13T07:50:12.673Z,14.24
2017-09-13T07:51:12.677Z,14.26
2017-09-13T07:52:12.683Z,14.28
2017-09-13T07:53:12.686Z,14.31
2017-09-13T07:54:12.690Z,14.37
2017-09-13T07:55:12.688Z,14.41
2017-09-13T07:56:12.698Z,14.53
2017-09-13T07:57:12.708Z,14.69
2017-09-13T07:58:12.705Z,14.91
2017-09-13T07:59:12.700Z,15.15
2017-09-13T08:00:12.706Z,15.36
2017-09-13T08:01:12.741Z,15.61
2017-09-13T08:02:12.709Z,15.88
2017-09-13T08:03:12.714Z,15.96
2017-09-13T08:04:12.715Z,15.95
2017-09-13T08:05:12.720Z,15.78
2017-09-13T08:06:12.726Z,15.76
2017-09-13T08:07:12.725Z,15.72
2017-09-13T08:08:12.729Z,15.68
2017-09-13T08:09:12.733Z,15.71
2017-09-13T08:10:12.746Z,16.00
2017-09-13T08:11:12.748Z,16.37
2017-09-13T08:12:12.744Z,16.69
2017-09-13T08:13:12.747Z,17.02
2017-09-13T08:14:12.749Z,17.11
2017-09-13T08:15:12.760Z,17.41
2017-09-13T08:16:12.756Z,17.52
2017-09-13T08:17:12.761Z,17.46
2017-09-13T08:18:12.767Z,17.23
2017-09-13T08:19:12.765Z,17.15
2017-09-13T08:20:12.769Z,17.09
2017-09-13T08:21:12.774Z,17.07
2017-09-13T08:22:12.782Z,17.08
2017-09-13T08:23:12.783Z,17.02
2017-09-13T08:24:12.784Z,17.01
2017-09-13T08:25:12.785Z,17.22
2017-09-13T08:26:12.791Z,17.43
2017-09-13T08:27:12.802Z,17.47
2017-09-13T08:28:12.800Z,17.35
2017-09-13T08:29:12.807Z,17.08
2017-09-13T08:30:12.828Z,16.95
2017-09-13T08:31:12.805Z,16.71
2017-09-13T08:32:12.810Z,16.70
2017-09-13T08:33:12.819Z,17.01
2017-09-13T08:34:12.815Z,17.07
2017-09-13T08:35:12.820Z,17.01
2017-09-13T08:36:12.821Z,16.91
2017-09-13T08:37:12.825Z,16.77
2017-09-13T08:38:12.829Z,16.64
2017-09-13T08:39:12.833Z,16.66
2017-09-13T08:40:12.838Z,16.86
2017-09-13T08:41:12.841Z,16.88
2017-09-13T08:42:12.859Z,17.06
2017-09-13T08:43:12.847Z,17.21
2017-09-13T08:44:12.849Z,17.27
2017-09-13T08:45:12.856Z,17.15
2017-09-13T08:46:12.858Z,17.00
2017-09-13T08:47:12.863Z,16.86
2017-09-13T08:48:12.865Z,16.76
2017-09-13T08:49:12.872Z,16.64
2017-09-13T08:50:12.869Z,16.59
2017-09-13T08:51:12.881Z,16.61
2017-09-13T08:52:12.877Z,16.85
2017-09-13T08:53:12.883Z,17.11
2017-09-13T08:54:12.883Z,17.51
2017-09-13T08:55:12.888Z,17.78
2017-09-13T08:56:12.892Z,17.59
2017-09-13T08:57:12.892Z,17.73
2017-09-13T08:58:12.896Z,18.13
2017-09-13T08:59:12.908Z,18.44
2017-09-13T09:00:12.911Z,18.54
2017-09-13T09:01:12.933Z,18.58
2017-09-13T09:02:12.913Z,18.39
2017-09-13T09:03:12.923Z,18.03
2017-09-13T09:04:12.914Z,17.66
2017-09-13T09:05:12.917Z,17.52
2017-09-13T09:06:12.926Z,17.48
2017-09-13T09:07:12.926Z,17.65
2017-09-13T09:08:12.931Z,17.74
2017-09-13T09:09:12.933Z,18.00
2017-09-13T09:10:12.937Z,18.02
2017-09-13T09:11:12.946Z,18.11
2017-09-13T09:12:12.943Z,18.07
2017-09-13T09:13:12.944Z,18.12
2017-09-13T09:14:12.948Z,18.44
2017-09-13T09:15:12.954Z,18.88
2017-09-13T09:16:12.955Z,19.35
2017-09-13T09:17:12.957Z,19.72
2017-09-13T09:18:12.962Z,19.93
2017-09-13T09:19:12.966Z,20.04
2017-09-13T09:20:12.968Z,20.29
2017-09-13T09:21:12.974Z,19.96
2017-09-13T09:22:12.979Z,19.75
2017-09-13T09:23:12.987Z,19.96
2017-09-13T09:24:12.984Z,20.16
2017-09-13T09:25:12.989Z,20.20
2017-09-13T09:26:12.992Z,20.21
2017-09-13T09:27:12.991Z,20.45
2017-09-13T09:28:12.993Z,20.79
2017-09-13T09:29:12.999Z,20.61
2017-09-13T09:30:13.008Z,20.03
2017-09-13T09:31:13.037Z,19.68
2017-09-13T09:32:13.011Z,18.99
2017-09-13T09:33:13.013Z,18.36
2017-09-13T09:34:13.017Z,17.97
2017-09-13T09:35:13.018Z,17.54
2017-09-13T09:36:13.026Z,17.29
2017-09-13T09:37:13.027Z,17.07
2017-09-13T09:38:13.028Z,16.98
2017-09-13T09:39:13.033Z,16.90
2017-09-13T09:40:13.036Z,16.75
2017-09-13T09:41:13.044Z,16.64
2017-09-13T09:42:13.045Z,16.45
2017-09-13T09:43:13.044Z,16.33
2017-09-13T09:44:13.048Z,16.25
2017-09-13T09:45:13.058Z,16.19
2017-09-13T09:46:13.059Z,16.17
2017-09-13T09:47:13.071Z,16.14
2017-09-13T09:48:13.062Z,16.10
2017-09-13T09:49:13.068Z,16.08
2017-09-13T09:50:34.074Z,16.09
2017-09-13T09:50:37.398Z,16.09
2017-09-13T09:51:13.073Z,16.14
2017-09-13T09:52:13.075Z,16.17
2017-09-13T09:53:13.080Z,16.24
2017-09-13T09:54:13.082Z,16.58
2017-09-13T09:55:13.099Z,16.84
2017-09-13T09:56:13.096Z,17.33
2017-09-13T09:57:13.100Z,17.73
2017-09-13T11:19:28.764Z,19.86
2017-09-13T11:20:13.370Z,19.71
2017-09-13T11:21:13.370Z,19.59
2017-09-13T11:22:13.374Z,19.41
2017-09-13T11:23:13.382Z,19.47
2017-09-13T11:24:13.381Z,19.70
2017-09-13T11:25:13.383Z,19.78
2017-09-13T11:26:13.395Z,19.63
2017-09-13T11:27:13.392Z,19.38
2017-09-13T11:28:13.392Z,19.10
2017-09-13T11:29:13.399Z,18.95
2017-09-13T11:30:13.401Z,18.76
2017-09-13T11:31:13.404Z,18.64
2017-09-13T11:32:13.412Z,18.71
2017-09-13T11:33:13.417Z,18.73
2017-09-13T11:34:13.417Z,18.72
2017-09-13T11:35:13.418Z,18.71
2017-09-13T11:36:13.423Z,18.67
2017-09-13T11:37:13.430Z,18.66
2017-09-13T11:38:13.433Z,18.62
2017-09-13T11:39:13.430Z,18.55
2017-09-13T11:40:13.436Z,18.57
2017-09-13T11:41:13.444Z,18.64
2017-09-13T11:42:13.441Z,18.65
2017-09-13T11:43:13.440Z,18.59
2017-09-13T11:44:13.449Z,18.59
2017-09-13T11:45:13.454Z,18.68
2017-09-13T11:46:13.456Z,18.93
2017-09-13T11:47:13.454Z,19.27
2017-09-13T11:48:13.463Z,19.65
2017-09-13T11:49:13.463Z,19.93
2017-09-13T11:50:13.473Z,19.80
2017-09-13T11:51:13.480Z,19.70
2017-09-13T11:52:13.604Z,19.72
2017-09-13T11:53:13.474Z,19.66
2017-09-13T11:54:13.482Z,19.78
2017-09-13T11:55:13.492Z,19.64
2017-09-13T11:56:13.810Z,19.53
2017-09-13T11:57:14.007Z,19.38
2017-09-13T11:58:13.493Z,19.37
2017-09-13T11:59:13.496Z,19.37
2017-09-13T12:00:13.770Z,19.44
2017-09-13T12:01:13.514Z,19.39
2017-09-13T12:02:13.508Z,19.18
2017-09-13T12:03:13.518Z,19.06
2017-09-13T12:04:13.525Z,19.01
2017-09-13T12:05:13.520Z,18.92
2017-09-13T12:06:13.539Z,18.93
2017-09-13T12:07:13.546Z,18.95
2017-09-13T12:08:13.559Z,19.12
2017-09-13T12:09:13.563Z,19.27
2017-09-13T12:10:13.536Z,19.44
2017-09-13T12:11:13.577Z,19.52
2017-09-13T12:12:13.539Z,19.43
2017-09-13T12:13:13.545Z,19.23
2017-09-13T12:14:13.547Z,19.12
2017-09-13T12:15:13.560Z,18.91
2017-09-13T12:16:13.567Z,18.81
2017-09-13T12:17:13.560Z,18.64
2017-09-13T12:18:13.562Z,18.53
2017-09-13T12:19:13.572Z,18.45
2017-09-13T12:20:13.567Z,18.40
2017-09-13T12:21:13.571Z,18.33
2017-09-13T12:22:13.575Z,18.24
2017-09-13T12:23:13.578Z,18.16
2017-09-13T12:24:13.581Z,18.11
2017-09-13T12:25:13.585Z,18.11
2017-09-13T12:26:13.586Z,18.10
2017-09-13T12:27:18.338Z,18.08
2017-09-13T12:28:13.629Z,18.04
2017-09-13T12:29:13.598Z,18.03
2017-09-13T12:30:14.092Z,18.03
2017-09-13T12:31:13.613Z,18.02
2017-09-13T12:32:13.612Z,17.97
2017-09-13T12:33:13.613Z,17.96
2017-09-13T12:34:13.621Z,17.90
2017-09-13T12:35:13.947Z,17.84
2017-09-13T12:36:13.624Z,17.81
2017-09-13T12:37:13.927Z,17.81
2017-09-13T12:38:13.626Z,17.78
2017-09-13T12:39:13.632Z,17.76
2017-09-13T12:40:13.636Z,17.77
2017-09-13T12:41:13.752Z,17.77
2017-09-13T12:42:13.643Z,17.76
2017-09-13T12:43:13.645Z,17.78
2017-09-13T12:44:13.651Z,17.78
2017-09-13T12:45:13.653Z,17.74
2017-09-13T12:46:13.654Z,17.71
2017-09-13T12:47:13.658Z,17.68
2017-09-13T12:48:13.665Z,17.60
2017-09-13T12:49:13.682Z,17.56
2017-09-13T12:50:13.669Z,17.51
2017-09-13T12:51:13.675Z,17.50
2017-09-13T12:52:13.683Z,17.52
2017-09-13T12:53:13.680Z,17.57
2017-09-13T12:54:13.684Z,17.59
2017-09-13T12:55:13.686Z,17.62
2017-09-13T12:56:13.689Z,17.62
2017-09-13T12:57:13.710Z,17.61
2017-09-13T12:58:13.702Z,17.61
2017-09-13T12:59:13.706Z,17.53
2017-09-13T13:00:13.703Z,17.51
2017-09-13T13:01:13.724Z,17.43
2017-09-13T13:02:13.712Z,17.40
2017-09-13T13:03:13.746Z,17.32
2017-09-13T13:04:13.780Z,17.33
2017-09-13T13:05:13.740Z,17.36
2017-09-13T13:06:13.726Z,17.38
2017-09-13T13:07:13.747Z,17.42
2017-09-13T13:08:13.745Z,17.44
2017-09-13T13:09:13.733Z,17.47
2017-09-13T13:10:13.770Z,17.50
2017-09-13T13:11:13.747Z,17.53
2017-09-13T13:12:13.746Z,17.57
2017-09-13T13:13:13.747Z,17.55
2017-09-13T13:14:13.748Z,17.55
2017-09-13T13:15:13.752Z,17.58
2017-09-13T13:16:13.756Z,17.62
2017-09-13T13:17:13.771Z,17.63
2017-09-13T13:18:13.803Z,17.68
2017-09-13T13:19:13.786Z,17.73
2017-09-13T13:20:13.772Z,17.82
2017-09-13T13:21:13.770Z,17.90
2017-09-13T13:22:13.785Z,17.98
2017-09-13T13:23:13.798Z,17.98
2017-09-13T13:24:13.785Z,17.99
2017-09-13T13:25:13.784Z,17.94
2017-09-13T13:26:13.788Z,17.97
2017-09-13T13:27:13.796Z,17.98
2017-09-13T13:28:14.271Z,17.99
2017-09-13T13:29:13.826Z,18.00
2017-09-13T13:30:13.810Z,18.03
2017-09-13T13:31:13.807Z,18.00
2017-09-13T13:32:13.808Z,18.04
2017-09-13T13:33:13.810Z,18.05
2017-09-13T13:34:13.817Z,18.08
2017-09-13T13:35:13.823Z,18.11
2017-09-13T13:36:13.821Z,18.15
2017-09-13T13:37:13.828Z,18.20
2017-09-13T13:38:13.831Z,18.26
2017-09-13T13:39:13.841Z,18.35
2017-09-13T13:40:13.835Z,18.42
2017-09-13T13:41:13.839Z,18.49
2017-09-13T13:42:13.911Z,18.49
2017-09-13T13:43:13.844Z,18.54
2017-09-13T13:44:13.851Z,18.57
2017-09-13T13:45:13.851Z,18.56
2017-09-13T13:46:13.863Z,18.56
2017-09-13T13:47:13.862Z,18.59
2017-09-13T13:48:13.865Z,18.61
2017-09-13T13:49:13.863Z,18.59
2017-09-13T13:50:13.870Z,18.60
2017-09-13T13:51:13.875Z,18.61
2017-09-13T13:52:13.874Z,18.66
2017-09-13T13:53:13.880Z,18.69
2017-09-13T13:54:13.878Z,18.73
2017-09-13T13:55:13.891Z,18.70
2017-09-13T13:56:13.889Z,18.70
2017-09-13T13:57:13.893Z,18.71
2017-09-13T13:58:13.896Z,18.69
2017-09-13T13:59:13.895Z,18.68
2017-09-13T14:00:13.932Z,18.66
2017-09-13T14:01:13.904Z,18.66
2017-09-13T14:02:13.908Z,18.58
2017-09-13T14:03:13.909Z,18.57
2017-09-13T14:04:13.913Z,18.50
2017-09-13T14:05:13.923Z,18.48
2017-09-13T14:06:13.928Z,18.46
2017-09-13T14:07:13.937Z,18.47
2017-09-13T14:08:13.932Z,18.46
2017-09-13T14:09:13.929Z,18.46
2017-09-13T14:10:13.935Z,18.45
2017-09-13T14:11:13.939Z,18.45
2017-09-13T14:12:13.940Z,18.42
2017-09-13T14:13:13.944Z,18.44
2017-09-13T14:14:13.950Z,18.49
2017-09-13T14:15:13.948Z,18.54
2017-09-13T14:16:13.951Z,18.54
2017-09-13T14:17:13.955Z,18.57
2017-09-13T14:18:13.959Z,18.60
2017-09-13T14:19:13.976Z,18.64
2017-09-13T14:20:13.969Z,18.64
2017-09-13T14:21:13.973Z,18.63
2017-09-13T14:22:13.978Z,18.62
2017-09-13T14:23:13.984Z,18.57
2017-09-13T14:24:13.981Z,18.53
2017-09-13T14:25:13.989Z,18.48
2017-09-13T14:26:13.987Z,18.44
2017-09-13T14:27:14.006Z,18.43
2017-09-13T14:28:13.996Z,18.42
2017-09-13T14:29:13.994Z,18.45
2017-09-13T14:30:14.002Z,18.43
2017-09-13T14:31:14.003Z,18.43
